createdAt,value
2022-09-16T00:01:28.360Z,2.38
2022-09-16T00:03:56.965Z,2.63
2022-09-16T00:06:26.776Z,2.78
2022-09-16T00:08:56.916Z,3.63
2022-09-16T00:11:24.791Z,3.78
2022-09-16T00:13:52.005Z,3.47
2022-09-16T00:16:24.314Z,3.58
2022-09-16T00:19:01.126Z,3.40
2022-09-16T00:21:30.112Z,4.28
2022-09-16T00:23:57.813Z,4.53
2022-09-16T00:26:26.137Z,2.88
2022-09-16T00:28:53.582Z,2.97
2022-09-16T00:31:20.699Z,4.05
2022-09-16T00:33:47.950Z,3.28
2022-09-16T00:36:19.206Z,4.88
2022-09-16T00:38:46.426Z,2.97
2022-09-16T00:41:18.047Z,4.30
2022-09-16T00:43:49.056Z,4.07
2022-09-16T00:46:18.284Z,4.32
2022-09-16T00:48:45.523Z,6.43
2022-09-16T00:51:16.138Z,5.30
2022-09-16T00:53:50.258Z,3.78
2022-09-16T00:56:23.895Z,4.22
2022-09-16T00:58:57.297Z,4.32
2022-09-16T01:01:24.425Z,3.38
2022-09-16T01:03:55.941Z,4.78
2022-09-16T01:06:26.974Z,3.50
2022-09-16T01:08:56.956Z,3.35
2022-09-16T01:11:24.727Z,3.90
2022-09-16T01:13:53.148Z,3.35
2022-09-16T01:16:31.940Z,4.43
2022-09-16T01:21:59.532Z,5.97
2022-09-16T01:33:05.175Z,3.38
2022-09-16T01:49:46.158Z,6.82
2022-09-16T01:55:08.766Z,5.30
2022-09-16T02:00:20.693Z,3.85
2022-09-16T02:08:14.795Z,5.00
2022-09-16T02:10:47.321Z,4.72
2022-09-16T02:13:22.585Z,5.53
2022-09-16T02:15:54.094Z,6.18
2022-09-16T02:18:26.628Z,6.53
2022-09-16T02:20:57.020Z,5.40
2022-09-16T02:23:29.241Z,8.73
2022-09-16T02:25:58.501Z,5.88
2022-09-16T02:28:33.438Z,6.53
2022-09-16T02:31:04.056Z,7.93
2022-09-16T02:33:37.183Z,8.75
2022-09-16T02:36:06.588Z,9.43
2022-09-16T02:38:40.746Z,8.77
2022-09-16T02:41:14.834Z,7.40
2022-09-16T02:43:43.195Z,9.02
2022-09-16T02:49:14.899Z,8.02
2022-09-16T02:57:01.789Z,8.57
2022-09-16T02:59:29.428Z,5.53
2022-09-16T03:01:56.779Z,7.25
2022-09-16T03:04:24.054Z,8.82
2022-09-16T03:06:51.416Z,8.10
2022-09-16T03:09:18.819Z,6.57
2022-09-16T03:18:02.073Z,7.70
2022-09-16T03:31:49.708Z,8.60
2022-09-16T03:34:40.182Z,6.20
2022-09-16T03:37:12.152Z,9.45
2022-09-16T03:39:40.106Z,7.45
2022-09-16T03:42:11.606Z,8.50
2022-09-16T03:44:40.876Z,8.55
2022-09-16T03:47:08.690Z,9.00
2022-09-16T03:49:37.235Z,9.20
2022-09-16T03:52:07.395Z,7.43
2022-09-16T03:54:36.149Z,13.02
2022-09-16T03:57:04.245Z,10.00
2022-09-16T03:59:31.500Z,14.68
2022-09-16T04:01:58.783Z,16.73
2022-09-16T04:04:26.048Z,18.25
2022-09-16T04:06:53.360Z,21.23
2022-09-16T04:09:20.493Z,23.77
2022-09-16T04:11:47.665Z,28.50
2022-09-16T04:14:15.132Z,20.95
2022-09-16T04:16:45.137Z,28.67
2022-09-16T04:19:13.921Z,22.15
2022-09-16T04:21:42.489Z,19.00
2022-09-16T04:24:13.222Z,17.45
2022-09-16T04:26:41.698Z,22.55
2022-09-16T04:29:09.410Z,17.92
2022-09-16T04:31:37.204Z,19.83
2022-09-16T04:34:05.198Z,22.75
2022-09-16T04:36:32.929Z,20.88
2022-09-16T04:39:00.051Z,18.38
2022-09-16T04:41:28.007Z,19.48
2022-09-16T04:43:58.431Z,18.52
2022-09-16T04:46:28.275Z,18.75
2022-09-16T04:48:56.538Z,20.10
2022-09-16T04:51:25.807Z,15.68
2022-09-16T04:53:55.169Z,21.02
2022-09-16T04:56:26.487Z,15.73
2022-09-16T04:58:56.470Z,17.48
2022-09-16T05:01:26.421Z,15.65
2022-09-16T05:03:55.477Z,17.50
2022-09-16T05:06:26.620Z,14.30
2022-09-16T05:08:55.055Z,15.57
2022-09-16T05:11:26.283Z,16.38
2022-09-16T05:13:54.178Z,14.88
2022-09-16T05:16:23.494Z,15.85
2022-09-16T05:18:54.256Z,14.32
2022-09-16T05:21:23.189Z,14.35
2022-09-16T05:23:51.226Z,13.80
2022-09-16T05:26:22.384Z,13.52
2022-09-16T05:28:51.125Z,14.75
2022-09-16T05:36:35.151Z,13.05
2022-09-16T05:39:22.194Z,11.73
2022-09-16T05:41:52.607Z,16.40
2022-09-16T05:44:19.797Z,16.88
2022-09-16T05:46:46.934Z,15.02
2022-09-16T05:49:14.373Z,17.42
2022-09-16T05:51:42.697Z,15.88
2022-09-16T05:54:09.962Z,13.82
2022-09-16T05:56:37.163Z,16.48
2022-09-16T05:59:04.909Z,15.77
2022-09-16T06:01:34.876Z,18.15
2022-09-16T06:04:04.145Z,19.58
2022-09-16T06:06:35.109Z,16.25
2022-09-16T06:09:09.399Z,13.93
2022-09-16T06:11:39.082Z,17.25
2022-09-16T06:14:06.713Z,17.35
2022-09-16T06:16:35.070Z,16.70
2022-09-16T06:19:04.345Z,15.20
2022-09-16T06:21:31.775Z,19.67
2022-09-16T06:23:59.099Z,20.25
2022-09-16T06:26:27.659Z,17.55
2022-09-16T06:28:55.922Z,16.38
2022-09-16T06:31:25.995Z,19.17
2022-09-16T06:33:54.389Z,15.30
2022-09-16T06:36:24.022Z,17.63
2022-09-16T06:38:51.883Z,17.17
2022-09-16T06:41:20.800Z,17.98
2022-09-16T06:43:48.683Z,15.55
2022-09-16T06:46:18.459Z,13.75
2022-09-16T06:48:48.354Z,16.80
2022-09-16T06:51:18.593Z,14.68
2022-09-16T06:53:47.040Z,13.07
2022-09-16T06:56:17.174Z,13.45
2022-09-16T06:58:48.402Z,13.77
2022-09-16T07:01:18.731Z,13.18
2022-09-16T07:03:48.200Z,12.55
2022-09-16T07:06:17.322Z,14.27
2022-09-16T07:08:45.869Z,14.15
2022-09-16T07:11:23.150Z,13.15
2022-09-16T07:13:51.619Z,15.15
2022-09-16T07:16:22.258Z,12.50
2022-09-16T07:19:00.079Z,13.68
2022-09-16T07:21:30.699Z,12.65
2022-09-16T07:23:59.515Z,15.02
2022-09-16T07:26:29.941Z,12.23
2022-09-16T07:29:00.324Z,12.88
2022-09-16T07:31:30.286Z,12.07
2022-09-16T07:34:03.696Z,12.35
2022-09-16T07:36:35.981Z,16.88
2022-09-16T07:41:33.845Z,13.00
2022-09-16T07:44:01.808Z,9.77
2022-09-16T07:46:33.648Z,11.13
2022-09-16T07:49:02.566Z,12.57
2022-09-16T07:51:30.437Z,10.45
2022-09-16T07:54:01.189Z,7.65
2022-09-16T07:56:31.372Z,7.47
2022-09-16T07:58:59.035Z,8.48
2022-09-16T08:01:27.129Z,3.88
2022-09-16T08:03:56.010Z,4.70
2022-09-16T08:06:27.255Z,5.97
2022-09-16T08:11:23.661Z,3.83
2022-09-16T08:13:51.217Z,4.32
2022-09-16T08:16:20.578Z,5.25
2022-09-16T08:18:49.663Z,3.85
2022-09-16T08:21:19.946Z,5.00
2022-09-16T08:23:48.024Z,8.40
2022-09-16T08:26:16.955Z,5.20
2022-09-16T08:29:07.241Z,4.20
2022-09-16T08:31:33.825Z,4.57
2022-09-16T08:34:01.302Z,5.40
2022-09-16T08:36:28.678Z,4.60
2022-09-16T08:38:57.059Z,4.65
2022-09-16T08:41:49.416Z,4.18
2022-09-16T08:44:57.976Z,4.35
2022-09-16T08:47:42.892Z,3.42
2022-09-16T08:50:18.235Z,5.75
2022-09-16T08:52:47.530Z,4.75
2022-09-16T08:55:23.805Z,4.63
2022-09-16T08:58:03.802Z,4.57
2022-09-16T09:00:32.480Z,4.85
2022-09-16T09:03:13.956Z,5.10
2022-09-16T09:08:30.911Z,5.05
2022-09-16T09:11:31.682Z,3.50
2022-09-16T09:17:30.157Z,3.88
2022-09-16T09:20:24.799Z,5.80
2022-09-16T09:26:04.706Z,4.40
2022-09-16T09:41:53.293Z,4.30
2022-09-16T09:44:48.492Z,3.58
2022-09-16T09:47:24.890Z,3.00
2022-09-16T09:49:57.300Z,5.20
2022-09-16T09:55:28.114Z,4.15
2022-09-16T09:58:20.424Z,4.50
2022-09-16T10:00:48.275Z,3.38
2022-09-16T10:03:18.623Z,4.72
2022-09-16T10:05:47.278Z,5.53
2022-09-16T10:11:01.463Z,3.88
2022-09-16T10:13:30.713Z,4.05
2022-09-16T10:16:18.659Z,5.07
2022-09-16T10:18:46.013Z,3.92
2022-09-16T10:21:16.595Z,3.90
2022-09-16T10:23:55.435Z,4.93
2022-09-16T10:26:25.824Z,4.95
2022-09-16T10:28:56.323Z,5.43
2022-09-16T10:31:28.146Z,4.38
2022-09-16T10:34:00.456Z,4.95
2022-09-16T10:36:32.479Z,7.15
2022-09-16T10:39:04.836Z,9.88
2022-09-16T10:41:42.050Z,9.57
2022-09-16T10:44:18.950Z,6.68
2022-09-16T10:47:07.875Z,5.55
2022-09-16T10:49:43.987Z,4.45
2022-09-16T10:52:25.237Z,6.95
2022-09-16T10:54:54.410Z,5.15
2022-09-16T11:06:19.903Z,4.40
2022-09-16T11:12:07.618Z,4.30
2022-09-16T11:17:45.621Z,6.20
2022-09-16T11:34:05.733Z,4.32
2022-09-16T11:40:12.344Z,4.25
2022-09-16T11:51:32.018Z,3.92
2022-09-16T11:57:03.163Z,3.60
2022-09-16T11:59:37.616Z,6.07
2022-09-16T12:02:23.355Z,3.42
2022-09-16T12:07:38.999Z,3.63
2022-09-16T12:12:49.029Z,6.95
2022-09-16T12:15:27.928Z,3.13
2022-09-16T12:17:59.131Z,7.10
2022-09-16T12:31:24.372Z,3.40
2022-09-16T12:34:15.083Z,4.30
2022-09-16T12:36:48.194Z,3.13
2022-09-16T12:39:15.998Z,4.53
2022-09-16T12:56:17.253Z,3.75
2022-09-16T12:59:05.150Z,4.95
2022-09-16T13:01:40.061Z,2.92
2022-09-16T13:06:58.490Z,4.32
2022-09-16T13:09:34.270Z,4.32
2022-09-16T13:14:56.830Z,5.07
2022-09-16T13:17:30.865Z,5.10
2022-09-16T13:30:37.756Z,6.85
2022-09-16T13:33:28.702Z,5.47
2022-09-16T13:38:45.924Z,6.45
2022-09-16T13:41:15.009Z,4.75
2022-09-16T13:46:34.673Z,6.78
2022-09-16T13:51:45.742Z,7.85
2022-09-16T13:54:47.929Z,5.50
2022-09-16T14:05:53.411Z,11.07
2022-09-16T14:14:05.470Z,7.80
2022-09-16T14:16:36.123Z,6.78
2022-09-16T14:24:42.237Z,8.13
2022-09-16T14:30:03.258Z,6.85
2022-09-16T14:32:33.549Z,7.00
2022-09-16T14:35:04.719Z,7.40
2022-09-16T14:37:32.564Z,7.65
2022-09-16T14:40:07.582Z,7.72
2022-09-16T14:42:34.933Z,8.70
2022-09-16T14:45:05.191Z,7.70
2022-09-16T14:47:52.739Z,10.02
2022-09-16T14:50:25.512Z,11.05
2022-09-16T14:52:56.548Z,8.82
2022-09-16T14:55:30.282Z,7.95
2022-09-16T14:57:58.933Z,9.68
2022-09-16T15:00:32.960Z,9.18
2022-09-16T15:03:10.352Z,9.20
2022-09-16T15:05:41.689Z,13.25
2022-09-16T15:08:19.982Z,10.10
2022-09-16T15:10:53.297Z,10.40
2022-09-16T15:13:26.128Z,9.45
2022-09-16T15:15:57.670Z,9.70
2022-09-16T15:18:36.525Z,8.90
2022-09-16T15:21:09.427Z,11.02
2022-09-16T15:23:40.376Z,7.88
2022-09-16T15:28:58.596Z,8.82
2022-09-16T15:31:33.659Z,7.97
2022-09-16T15:34:05.439Z,8.25
2022-09-16T15:36:39.454Z,10.07
2022-09-16T15:39:23.808Z,7.68
2022-09-16T15:42:03.686Z,7.63
2022-09-16T15:44:36.430Z,8.73
2022-09-16T15:47:05.449Z,7.28
2022-09-16T15:49:39.008Z,9.20
2022-09-16T15:52:12.171Z,8.15
2022-09-16T15:54:51.627Z,7.57
2022-09-16T15:57:35.764Z,7.80
2022-09-16T16:00:16.709Z,9.32
2022-09-16T16:02:54.179Z,7.88
2022-09-16T16:07:53.098Z,7.10
2022-09-16T16:13:04.422Z,6.25
2022-09-16T16:15:35.551Z,7.85
2022-09-16T16:18:06.593Z,10.65
2022-09-16T16:20:36.380Z,8.15
2022-09-16T16:23:04.750Z,6.38
2022-09-16T16:25:32.576Z,8.70
2022-09-16T16:27:59.690Z,7.72
2022-09-16T16:30:28.108Z,7.72
2022-09-16T16:32:55.451Z,9.52
2022-09-16T16:35:25.806Z,9.85
2022-09-16T16:37:52.980Z,8.43
2022-09-16T16:40:20.659Z,8.15
2022-09-16T16:42:47.944Z,8.15
2022-09-16T16:45:15.264Z,7.93
2022-09-16T16:47:44.551Z,5.45
2022-09-16T16:50:12.260Z,5.82
2022-09-16T16:52:39.755Z,5.28
2022-09-16T16:55:07.952Z,5.53
2022-09-16T16:57:35.596Z,6.22
2022-09-16T17:00:05.328Z,5.50
2022-09-16T17:02:32.744Z,5.20
2022-09-16T17:05:00.126Z,5.80
2022-09-16T17:07:28.288Z,4.10
2022-09-16T17:09:57.831Z,5.10
2022-09-16T17:12:25.954Z,6.35
2022-09-16T17:14:53.314Z,5.57
2022-09-16T17:17:20.654Z,6.78
2022-09-16T17:19:47.928Z,4.93
2022-09-16T17:22:15.296Z,4.65
2022-09-16T17:24:42.594Z,6.45
2022-09-16T17:27:09.958Z,4.70
2022-09-16T17:29:37.296Z,5.93
2022-09-16T17:32:04.665Z,5.63
2022-09-16T17:34:32.266Z,6.72
2022-09-16T17:37:00.129Z,5.38
2022-09-16T17:39:27.694Z,5.72
2022-09-16T17:41:57.163Z,7.95
2022-09-16T17:44:25.095Z,6.55
2022-09-16T17:46:52.317Z,7.18
2022-09-16T17:49:22.453Z,5.50
2022-09-16T17:51:51.027Z,6.07
2022-09-16T17:54:18.467Z,6.80
2022-09-16T17:56:46.020Z,4.72
2022-09-16T17:59:15.614Z,5.85
2022-09-16T18:01:42.874Z,5.05
2022-09-16T18:04:11.393Z,7.35
2022-09-16T18:06:44.981Z,7.05
2022-09-16T18:09:16.503Z,5.93
2022-09-16T18:14:13.545Z,6.03
2022-09-16T18:16:41.717Z,4.97
2022-09-16T18:19:09.147Z,6.40
2022-09-16T18:21:38.398Z,5.53
2022-09-16T18:24:11.516Z,4.88
2022-09-16T18:26:41.020Z,5.15
2022-09-16T18:29:11.603Z,5.80
2022-09-16T18:31:42.331Z,5.55
2022-09-16T18:34:10.210Z,3.92
2022-09-16T18:36:39.092Z,5.13
2022-09-16T18:39:10.635Z,4.38
2022-09-16T18:44:13.989Z,5.28
2022-09-16T18:46:42.339Z,5.07
2022-09-16T18:49:13.050Z,8.88
2022-09-16T18:51:47.240Z,4.68
2022-09-16T18:54:20.634Z,4.07
2022-09-16T18:56:47.893Z,4.40
2022-09-16T18:59:22.927Z,3.95
2022-09-16T19:01:52.926Z,4.75
2022-09-16T19:04:23.423Z,4.32
2022-09-16T19:06:53.519Z,5.20
2022-09-16T19:09:22.909Z,5.25
2022-09-16T19:11:52.621Z,6.30
2022-09-16T19:14:22.713Z,5.63
2022-09-16T19:16:50.136Z,5.45
2022-09-16T19:19:17.384Z,6.18
2022-09-16T19:21:44.881Z,7.13
2022-09-16T19:24:17.066Z,5.65
2022-09-16T19:26:45.394Z,5.07
2022-09-16T19:29:14.749Z,6.93
2022-09-16T19:31:44.171Z,7.05
2022-09-16T19:34:12.195Z,6.40
2022-09-16T19:36:40.058Z,7.25
2022-09-16T19:39:08.951Z,7.47
2022-09-16T19:41:38.667Z,7.57
2022-09-16T19:44:08.267Z,7.53
2022-09-16T19:46:37.966Z,7.90
2022-09-16T19:49:06.572Z,7.95
2022-09-16T19:51:34.171Z,7.68
2022-09-16T19:54:02.062Z,6.57
2022-09-16T19:56:32.805Z,9.57
2022-09-16T19:59:01.676Z,7.13
2022-09-16T20:01:32.318Z,10.00
2022-09-16T20:04:00.757Z,11.48
2022-09-16T20:06:32.017Z,8.60
2022-09-16T20:09:01.526Z,9.50
2022-09-16T20:11:32.101Z,7.70
2022-09-16T20:14:03.385Z,11.75
2022-09-16T20:16:36.068Z,11.73
2022-09-16T20:19:06.363Z,11.48
2022-09-16T20:21:35.433Z,13.27
2022-09-16T20:24:06.010Z,11.10
2022-09-16T20:26:35.594Z,10.30
2022-09-16T20:29:04.107Z,11.52
2022-09-16T20:31:34.497Z,12.63
2022-09-16T20:34:02.663Z,10.68
2022-09-16T20:36:31.642Z,10.65
2022-09-16T20:39:00.259Z,10.77
2022-09-16T20:41:30.415Z,9.38
2022-09-16T20:43:59.391Z,12.13
2022-09-16T20:49:11.401Z,10.38
2022-09-16T20:51:38.523Z,11.38
2022-09-16T20:54:09.203Z,11.57
2022-09-16T20:56:39.277Z,14.05
2022-09-16T20:59:09.402Z,10.93
2022-09-16T21:01:38.134Z,15.02
2022-09-16T21:04:08.295Z,14.10
2022-09-16T21:06:36.380Z,12.48
2022-09-16T21:09:08.405Z,16.52
2022-09-16T21:11:36.230Z,13.57
2022-09-16T21:14:07.378Z,17.38
2022-09-16T21:16:36.916Z,14.77
2022-09-16T21:19:09.530Z,14.32
2022-09-16T21:21:39.248Z,11.55
2022-09-16T21:24:07.543Z,12.05
2022-09-16T21:26:36.875Z,11.52
2022-09-16T21:29:09.180Z,16.30
2022-09-16T21:31:38.282Z,14.20
2022-09-16T21:34:06.995Z,14.43
2022-09-16T21:36:35.586Z,11.40
2022-09-16T21:39:02.995Z,13.15
2022-09-16T21:41:30.437Z,13.43
2022-09-16T21:43:58.160Z,11.02
2022-09-16T21:46:28.277Z,13.18
2022-09-16T21:49:02.362Z,11.90
2022-09-16T21:51:35.431Z,12.98
2022-09-16T21:54:05.931Z,10.27
2022-09-16T21:56:33.331Z,11.40
2022-09-16T21:59:00.525Z,10.10
2022-09-16T22:01:30.649Z,11.43
2022-09-16T22:04:00.382Z,10.13
2022-09-16T22:06:28.262Z,12.10
2022-09-16T22:08:57.231Z,9.82
2022-09-16T22:11:26.445Z,9.60
2022-09-16T22:13:54.836Z,11.93
2022-09-16T22:16:29.048Z,8.75
2022-09-16T22:18:58.113Z,14.75
2022-09-16T22:21:27.964Z,9.05
2022-09-16T22:23:55.773Z,9.60
2022-09-16T22:26:24.108Z,9.85
2022-09-16T22:28:51.589Z,9.35
2022-09-16T22:31:21.978Z,11.75
2022-09-16T22:33:51.093Z,10.75
2022-09-16T22:36:20.835Z,10.18
2022-09-16T22:38:49.962Z,10.77
2022-09-16T22:41:17.976Z,9.77
2022-09-16T22:43:47.093Z,10.60
2022-09-16T22:46:18.687Z,10.50
2022-09-16T22:51:16.090Z,9.93
2022-09-16T22:53:44.443Z,14.63
2022-09-16T22:56:14.516Z,12.85
2022-09-16T22:58:44.161Z,10.77
2022-09-16T23:01:14.685Z,10.40
2022-09-16T23:03:43.310Z,12.98
2022-09-16T23:06:12.870Z,7.35
2022-09-16T23:08:42.207Z,10.80
2022-09-16T23:11:12.663Z,8.55
2022-09-16T23:13:42.235Z,10.70
2022-09-16T23:16:15.946Z,9.32
2022-09-16T23:18:44.061Z,10.35
2022-09-16T23:21:13.059Z,11.90
2022-09-16T23:23:43.469Z,9.90
2022-09-16T23:26:13.843Z,9.90
2022-09-16T23:28:41.216Z,11.73
2022-09-16T23:31:12.414Z,7.95
2022-09-16T23:33:40.079Z,8.77
2022-09-16T23:36:08.379Z,8.93
2022-09-16T23:38:39.197Z,12.63
2022-09-16T23:41:10.966Z,8.95
2022-09-16T23:43:39.416Z,7.03
2022-09-16T23:46:06.988Z,7.72
2022-09-16T23:48:35.518Z,7.68
2022-09-16T23:51:02.877Z,7.82
2022-09-16T23:53:30.445Z,6.97
2022-09-16T23:55:57.631Z,8.13
2022-09-16T23:58:24.800Z,7.97
